sensor_id;sensor_type;location;lat;lon;timestamp;P1;durP1;ratioP1;P2;durP2;ratioP2
22223;SDS011;11281;52.194;21.006;2022-09-27T00:00:48;12.70;;;9.90;;
22223;SDS011;11281;52.194;21.006;2022-09-27T00:05:09;17.67;;;11.60;;
22223;SDS011;11281;52.194;21.006;2022-09-27T00:09:32;17.85;;;11.18;;
22223;SDS011;11281;52.194;21.006;2022-09-27T00:13:55;13.68;;;11.63;;
22223;SDS011;11281;52.194;21.006;2022-09-27T00:18:18;16.17;;;12.07;;
22223;SDS011;11281;52.194;21.006;2022-09-27T00:22:40;15.18;;;12.38;;
22223;SDS011;11281;52.194;21.006;2022-09-27T00:27:02;15.70;;;12.15;;
22223;SDS011;11281;52.194;21.006;2022-09-27T00:31:27;15.40;;;11.88;;
22223;SDS011;11281;52.194;21.006;2022-09-27T00:35:50;14.88;;;11.88;;
22223;SDS011;11281;52.194;21.006;2022-09-27T00:40:12;15.40;;;12.52;;
22223;SDS011;11281;52.194;21.006;2022-09-27T00:49:18;16.63;;;11.63;;
22223;SDS011;11281;52.194;21.006;2022-09-27T00:53:49;17.13;;;12.27;;
22223;SDS011;11281;52.194;21.006;2022-09-27T00:58:14;16.75;;;12.48;;
22223;SDS011;11281;52.194;21.006;2022-09-27T01:02:40;15.20;;;12.30;;
22223;SDS011;11281;52.194;21.006;2022-09-27T01:07:06;19.00;;;13.73;;
22223;SDS011;11281;52.194;21.006;2022-09-27T01:16:15;18.70;;;15.07;;
22223;SDS011;11281;52.194;21.006;2022-09-27T01:30:26;19.85;;;15.15;;
22223;SDS011;11281;52.194;21.006;2022-09-27T01:39:48;20.67;;;15.25;;
22223;SDS011;11281;52.194;21.006;2022-09-27T01:49:09;22.23;;;15.43;;
22223;SDS011;11281;52.194;21.006;2022-09-27T01:53:48;20.67;;;16.20;;
22223;SDS011;11281;52.194;21.006;2022-09-27T01:58:28;22.60;;;15.65;;
22223;SDS011;11281;52.194;21.006;2022-09-27T02:03:12;22.40;;;16.15;;
22223;SDS011;11281;52.194;21.006;2022-09-27T02:07:45;19.48;;;15.82;;
22223;SDS011;11281;52.194;21.006;2022-09-27T02:12:13;19.80;;;15.07;;
22223;SDS011;11281;52.194;21.006;2022-09-27T02:21:17;22.50;;;15.68;;
22223;SDS011;11281;52.194;21.006;2022-09-27T02:25:50;20.77;;;15.00;;
22223;SDS011;11281;52.194;21.006;2022-09-27T02:30:37;22.02;;;15.52;;
22223;SDS011;11281;52.194;21.006;2022-09-27T02:35:00;23.60;;;15.63;;
22223;SDS011;11281;52.194;21.006;2022-09-27T02:39:28;19.70;;;14.73;;
22223;SDS011;11281;52.194;21.006;2022-09-27T02:43:55;24.25;;;16.65;;
22223;SDS011;11281;52.194;21.006;2022-09-27T02:53:09;21.65;;;16.83;;
22223;SDS011;11281;52.194;21.006;2022-09-27T03:02:32;20.95;;;16.33;;
22223;SDS011;11281;52.194;21.006;2022-09-27T03:06:59;22.40;;;16.27;;
22223;SDS011;11281;52.194;21.006;2022-09-27T03:11:21;23.65;;;17.42;;
22223;SDS011;11281;52.194;21.006;2022-09-27T03:15:43;24.80;;;18.73;;
22223;SDS011;11281;52.194;21.006;2022-09-27T03:20:05;25.55;;;18.13;;
22223;SDS011;11281;52.194;21.006;2022-09-27T03:24:27;25.35;;;17.85;;
22223;SDS011;11281;52.194;21.006;2022-09-27T03:28:49;30.70;;;20.80;;
22223;SDS011;11281;52.194;21.006;2022-09-27T03:33:11;34.30;;;21.63;;
22223;SDS011;11281;52.194;21.006;2022-09-27T03:37:33;30.25;;;21.23;;
22223;SDS011;11281;52.194;21.006;2022-09-27T03:41:55;34.40;;;21.92;;
22223;SDS011;11281;52.194;21.006;2022-09-27T03:46:17;32.92;;;22.58;;
22223;SDS011;11281;52.194;21.006;2022-09-27T03:50:39;34.22;;;23.45;;
22223;SDS011;11281;52.194;21.006;2022-09-27T03:55:00;33.58;;;22.90;;
22223;SDS011;11281;52.194;21.006;2022-09-27T03:59:22;35.78;;;23.75;;
22223;SDS011;11281;52.194;21.006;2022-09-27T04:03:44;37.78;;;25.15;;
22223;SDS011;11281;52.194;21.006;2022-09-27T04:08:06;37.08;;;23.98;;
22223;SDS011;11281;52.194;21.006;2022-09-27T04:12:28;36.78;;;23.83;;
22223;SDS011;11281;52.194;21.006;2022-09-27T04:16:50;37.45;;;24.30;;
22223;SDS011;11281;52.194;21.006;2022-09-27T04:21:12;39.40;;;24.20;;
22223;SDS011;11281;52.194;21.006;2022-09-27T04:25:34;37.80;;;24.00;;
22223;SDS011;11281;52.194;21.006;2022-09-27T04:29:56;39.30;;;24.33;;
22223;SDS011;11281;52.194;21.006;2022-09-27T04:34:18;37.65;;;24.35;;
22223;SDS011;11281;52.194;21.006;2022-09-27T04:39:00;37.38;;;24.05;;
22223;SDS011;11281;52.194;21.006;2022-09-27T04:43:26;35.88;;;22.73;;
22223;SDS011;11281;52.194;21.006;2022-09-27T04:47:48;36.53;;;22.52;;
22223;SDS011;11281;52.194;21.006;2022-09-27T04:52:10;34.92;;;22.20;;
22223;SDS011;11281;52.194;21.006;2022-09-27T04:56:32;41.80;;;23.77;;
22223;SDS011;11281;52.194;21.006;2022-09-27T05:00:54;37.45;;;23.08;;
22223;SDS011;11281;52.194;21.006;2022-09-27T05:05:15;37.30;;;23.20;;
22223;SDS011;11281;52.194;21.006;2022-09-27T05:09:37;34.50;;;21.70;;
22223;SDS011;11281;52.194;21.006;2022-09-27T05:13:59;34.38;;;21.73;;
22223;SDS011;11281;52.194;21.006;2022-09-27T05:18:21;34.53;;;22.02;;
22223;SDS011;11281;52.194;21.006;2022-09-27T05:22:42;32.80;;;19.95;;
22223;SDS011;11281;52.194;21.006;2022-09-27T05:27:04;36.30;;;21.70;;
22223;SDS011;11281;52.194;21.006;2022-09-27T05:31:28;32.40;;;19.85;;
22223;SDS011;11281;52.194;21.006;2022-09-27T05:35:50;32.33;;;20.60;;
22223;SDS011;11281;52.194;21.006;2022-09-27T05:40:16;29.35;;;19.70;;
22223;SDS011;11281;52.194;21.006;2022-09-27T05:44:38;35.35;;;20.40;;
22223;SDS011;11281;52.194;21.006;2022-09-27T05:49:00;30.48;;;19.35;;
22223;SDS011;11281;52.194;21.006;2022-09-27T05:53:21;29.85;;;20.20;;
22223;SDS011;11281;52.194;21.006;2022-09-27T06:02:36;28.15;;;19.45;;
22223;SDS011;11281;52.194;21.006;2022-09-27T06:06:57;31.75;;;19.83;;
22223;SDS011;11281;52.194;21.006;2022-09-27T06:11:19;34.92;;;20.42;;
22223;SDS011;11281;52.194;21.006;2022-09-27T06:15:42;33.55;;;20.77;;
22223;SDS011;11281;52.194;21.006;2022-09-27T06:20:07;34.00;;;20.38;;
22223;SDS011;11281;52.194;21.006;2022-09-27T06:24:29;33.80;;;20.83;;
22223;SDS011;11281;52.194;21.006;2022-09-27T06:28:51;34.88;;;20.40;;
22223;SDS011;11281;52.194;21.006;2022-09-27T06:33:16;31.20;;;19.70;;
22223;SDS011;11281;52.194;21.006;2022-09-27T06:37:39;32.63;;;20.30;;
22223;SDS011;11281;52.194;21.006;2022-09-27T06:42:01;34.00;;;20.25;;
22223;SDS011;11281;52.194;21.006;2022-09-27T06:46:23;34.72;;;20.65;;
22223;SDS011;11281;52.194;21.006;2022-09-27T06:50:45;37.70;;;20.15;;
22223;SDS011;11281;52.194;21.006;2022-09-27T06:55:09;36.63;;;21.48;;
22223;SDS011;11281;52.194;21.006;2022-09-27T06:59:30;34.08;;;19.85;;
22223;SDS011;11281;52.194;21.006;2022-09-27T07:04:11;33.85;;;19.80;;
22223;SDS011;11281;52.194;21.006;2022-09-27T07:08:33;31.48;;;18.90;;
22223;SDS011;11281;52.194;21.006;2022-09-27T07:12:55;34.13;;;20.92;;
22223;SDS011;11281;52.194;21.006;2022-09-27T07:17:18;33.80;;;20.67;;
22223;SDS011;11281;52.194;21.006;2022-09-27T07:21:39;36.78;;;21.40;;
22223;SDS011;11281;52.194;21.006;2022-09-27T07:26:02;31.05;;;19.05;;
22223;SDS011;11281;52.194;21.006;2022-09-27T07:30:25;27.33;;;17.75;;
22223;SDS011;11281;52.194;21.006;2022-09-27T07:34:47;28.65;;;17.63;;
22223;SDS011;11281;52.194;21.006;2022-09-27T07:39:08;29.10;;;18.52;;
22223;SDS011;11281;52.194;21.006;2022-09-27T07:43:30;30.58;;;17.17;;
22223;SDS011;11281;52.194;21.006;2022-09-27T07:47:53;29.38;;;17.77;;
22223;SDS011;11281;52.194;21.006;2022-09-27T07:52:14;29.13;;;18.35;;
22223;SDS011;11281;52.194;21.006;2022-09-27T07:56:36;28.75;;;17.60;;
22223;SDS011;11281;52.194;21.006;2022-09-27T08:00:58;27.48;;;18.02;;
22223;SDS011;11281;52.194;21.006;2022-09-27T08:05:22;29.95;;;16.95;;
22223;SDS011;11281;52.194;21.006;2022-09-27T08:09:44;27.83;;;18.33;;
22223;SDS011;11281;52.194;21.006;2022-09-27T08:14:05;29.15;;;17.67;;
22223;SDS011;11281;52.194;21.006;2022-09-27T08:18:27;29.38;;;17.67;;
22223;SDS011;11281;52.194;21.006;2022-09-27T08:22:49;37.25;;;19.48;;
22223;SDS011;11281;52.194;21.006;2022-09-27T08:27:10;33.92;;;20.00;;
22223;SDS011;11281;52.194;21.006;2022-09-27T08:31:33;33.30;;;21.00;;
22223;SDS011;11281;52.194;21.006;2022-09-27T08:35:55;34.15;;;19.88;;
22223;SDS011;11281;52.194;21.006;2022-09-27T08:40:16;34.00;;;19.60;;
22223;SDS011;11281;52.194;21.006;2022-09-27T08:49:52;29.17;;;18.15;;
22223;SDS011;11281;52.194;21.006;2022-09-27T08:54:14;30.33;;;17.80;;
22223;SDS011;11281;52.194;21.006;2022-09-27T09:03:48;24.40;;;16.08;;
22223;SDS011;11281;52.194;21.006;2022-09-27T09:13:09;25.33;;;16.88;;
22223;SDS011;11281;52.194;21.006;2022-09-27T09:33:51;24.45;;;16.65;;
22223;SDS011;11281;52.194;21.006;2022-09-27T09:52:29;21.33;;;14.60;;
22223;SDS011;11281;52.194;21.006;2022-09-27T09:57:04;21.83;;;13.82;;
22223;SDS011;11281;52.194;21.006;2022-09-27T10:01:42;17.85;;;12.73;;
22223;SDS011;11281;52.194;21.006;2022-09-27T10:06:08;17.08;;;12.40;;
22223;SDS011;11281;52.194;21.006;2022-09-27T10:10:31;18.23;;;13.13;;
22223;SDS011;11281;52.194;21.006;2022-09-27T10:14:54;18.83;;;12.93;;
22223;SDS011;11281;52.194;21.006;2022-09-27T10:19:27;20.85;;;13.95;;
22223;SDS011;11281;52.194;21.006;2022-09-27T10:24:12;17.52;;;12.90;;
22223;SDS011;11281;52.194;21.006;2022-09-27T10:28:37;17.73;;;12.52;;
22223;SDS011;11281;52.194;21.006;2022-09-27T10:33:04;15.88;;;12.00;;
22223;SDS011;11281;52.194;21.006;2022-09-27T10:37:38;17.45;;;12.45;;
22223;SDS011;11281;52.194;21.006;2022-09-27T10:42:00;17.35;;;11.43;;
22223;SDS011;11281;52.194;21.006;2022-09-27T10:46:34;13.18;;;10.13;;
22223;SDS011;11281;52.194;21.006;2022-09-27T10:50:56;15.73;;;10.90;;
22223;SDS011;11281;52.194;21.006;2022-09-27T10:55:24;13.25;;;10.13;;
22223;SDS011;11281;52.194;21.006;2022-09-27T10:59:54;15.75;;;10.52;;
22223;SDS011;11281;52.194;21.006;2022-09-27T11:08:51;14.00;;;10.48;;
22223;SDS011;11281;52.194;21.006;2022-09-27T11:13:18;11.60;;;9.38;;
22223;SDS011;11281;52.194;21.006;2022-09-27T11:46:46;9.98;;;7.82;;
22223;SDS011;11281;52.194;21.006;2022-09-27T12:06:12;7.65;;;6.88;;
22223;SDS011;11281;52.194;21.006;2022-09-27T12:10:53;10.40;;;7.85;;
22223;SDS011;11281;52.194;21.006;2022-09-27T12:15:27;8.88;;;7.90;;
22223;SDS011;11281;52.194;21.006;2022-09-27T12:19:54;10.40;;;8.60;;
22223;SDS011;11281;52.194;21.006;2022-09-27T12:24:20;9.43;;;7.40;;
22223;SDS011;11281;52.194;21.006;2022-09-27T12:28:46;9.23;;;6.78;;
22223;SDS011;11281;52.194;21.006;2022-09-27T12:42:53;8.68;;;6.82;;
22223;SDS011;11281;52.194;21.006;2022-09-27T12:47:37;8.05;;;7.25;;
22223;SDS011;11281;52.194;21.006;2022-09-27T12:52:24;7.00;;;6.30;;
22223;SDS011;11281;52.194;21.006;2022-09-27T13:16:25;8.07;;;5.82;;
22223;SDS011;11281;52.194;21.006;2022-09-27T13:20:48;9.55;;;6.25;;
22223;SDS011;11281;52.194;21.006;2022-09-27T13:34:43;6.88;;;6.13;;
22223;SDS011;11281;52.194;21.006;2022-09-27T13:39:17;7.45;;;6.65;;
22223;SDS011;11281;52.194;21.006;2022-09-27T13:43:45;20.05;;;13.90;;
22223;SDS011;11281;52.194;21.006;2022-09-27T13:48:54;18.52;;;13.68;;
22223;SDS011;11281;52.194;21.006;2022-09-27T13:53:21;26.35;;;17.42;;
22223;SDS011;11281;52.194;21.006;2022-09-27T13:57:59;10.07;;;7.57;;
22223;SDS011;11281;52.194;21.006;2022-09-27T14:02:26;9.00;;;7.43;;
22223;SDS011;11281;52.194;21.006;2022-09-27T14:07:01;10.02;;;7.50;;
22223;SDS011;11281;52.194;21.006;2022-09-27T14:11:28;17.92;;;12.20;;
22223;SDS011;11281;52.194;21.006;2022-09-27T14:15:54;12.73;;;9.00;;
22223;SDS011;11281;52.194;21.006;2022-09-27T14:20:38;20.40;;;13.35;;
22223;SDS011;11281;52.194;21.006;2022-09-27T14:25:12;11.48;;;7.95;;
22223;SDS011;11281;52.194;21.006;2022-09-27T14:29:38;29.15;;;18.67;;
22223;SDS011;11281;52.194;21.006;2022-09-27T14:34:16;10.82;;;8.13;;
22223;SDS011;11281;52.194;21.006;2022-09-27T14:38:38;11.20;;;8.93;;
22223;SDS011;11281;52.194;21.006;2022-09-27T14:43:02;9.95;;;8.13;;
22223;SDS011;11281;52.194;21.006;2022-09-27T14:47:25;39.30;;;20.00;;
22223;SDS011;11281;52.194;21.006;2022-09-27T14:51:54;124.18;;;55.00;;
22223;SDS011;11281;52.194;21.006;2022-09-27T14:56:20;55.85;;;31.27;;
22223;SDS011;11281;52.194;21.006;2022-09-27T15:00:48;66.47;;;33.75;;
22223;SDS011;11281;52.194;21.006;2022-09-27T15:05:14;75.03;;;36.03;;
22223;SDS011;11281;52.194;21.006;2022-09-27T15:09:38;30.33;;;17.57;;
22223;SDS011;11281;52.194;21.006;2022-09-27T15:14:00;11.50;;;8.70;;
22223;SDS011;11281;52.194;21.006;2022-09-27T15:23:00;10.02;;;8.30;;
22223;SDS011;11281;52.194;21.006;2022-09-27T15:27:24;15.15;;;11.10;;
22223;SDS011;11281;52.194;21.006;2022-09-27T15:31:57;12.02;;;9.90;;
22223;SDS011;11281;52.194;21.006;2022-09-27T15:41:08;10.10;;;8.25;;
22223;SDS011;11281;52.194;21.006;2022-09-27T15:45:41;9.27;;;8.27;;
22223;SDS011;11281;52.194;21.006;2022-09-27T15:54:36;9.27;;;7.75;;
22223;SDS011;11281;52.194;21.006;2022-09-27T15:58:58;10.32;;;8.98;;
22223;SDS011;11281;52.194;21.006;2022-09-27T16:03:19;9.90;;;8.65;;
22223;SDS011;11281;52.194;21.006;2022-09-27T16:07:42;12.23;;;8.40;;
22223;SDS011;11281;52.194;21.006;2022-09-27T16:12:04;11.00;;;8.65;;
22223;SDS011;11281;52.194;21.006;2022-09-27T16:16:26;12.15;;;9.00;;
22223;SDS011;11281;52.194;21.006;2022-09-27T16:20:48;11.55;;;8.65;;
22223;SDS011;11281;52.194;21.006;2022-09-27T16:25:10;10.85;;;8.48;;
22223;SDS011;11281;52.194;21.006;2022-09-27T16:29:32;9.82;;;7.80;;
22223;SDS011;11281;52.194;21.006;2022-09-27T16:33:53;8.65;;;7.78;;
22223;SDS011;11281;52.194;21.006;2022-09-27T16:38:15;9.20;;;8.02;;
22223;SDS011;11281;52.194;21.006;2022-09-27T16:42:37;12.27;;;8.40;;
22223;SDS011;11281;52.194;21.006;2022-09-27T16:47:00;12.13;;;8.98;;
22223;SDS011;11281;52.194;21.006;2022-09-27T16:51:26;9.82;;;8.07;;
22223;SDS011;11281;52.194;21.006;2022-09-27T16:56:06;10.05;;;7.63;;
22223;SDS011;11281;52.194;21.006;2022-09-27T17:00:28;10.45;;;8.00;;
22223;SDS011;11281;52.194;21.006;2022-09-27T17:04:52;8.80;;;7.65;;
22223;SDS011;11281;52.194;21.006;2022-09-27T17:09:14;8.23;;;6.97;;
22223;SDS011;11281;52.194;21.006;2022-09-27T17:13:36;9.57;;;7.63;;
22223;SDS011;11281;52.194;21.006;2022-09-27T17:17:57;9.15;;;7.35;;
22223;SDS011;11281;52.194;21.006;2022-09-27T17:22:19;10.32;;;7.55;;
22223;SDS011;11281;52.194;21.006;2022-09-27T17:26:41;9.88;;;8.25;;
22223;SDS011;11281;52.194;21.006;2022-09-27T17:31:04;9.27;;;7.47;;
22223;SDS011;11281;52.194;21.006;2022-09-27T17:35:30;11.15;;;8.18;;
22223;SDS011;11281;52.194;21.006;2022-09-27T17:39:52;10.77;;;8.45;;
22223;SDS011;11281;52.194;21.006;2022-09-27T17:44:14;11.13;;;9.27;;
22223;SDS011;11281;52.194;21.006;2022-09-27T17:48:40;12.18;;;9.13;;
22223;SDS011;11281;52.194;21.006;2022-09-27T17:53:21;13.25;;;9.85;;
22223;SDS011;11281;52.194;21.006;2022-09-27T17:57:45;12.60;;;9.50;;
22223;SDS011;11281;52.194;21.006;2022-09-27T18:02:08;13.43;;;9.25;;
22223;SDS011;11281;52.194;21.006;2022-09-27T18:06:30;12.88;;;9.90;;
22223;SDS011;11281;52.194;21.006;2022-09-27T18:10:52;16.75;;;10.50;;
22223;SDS011;11281;52.194;21.006;2022-09-27T18:15:14;15.88;;;10.98;;
22223;SDS011;11281;52.194;21.006;2022-09-27T18:19:36;14.27;;;11.38;;
22223;SDS011;11281;52.194;21.006;2022-09-27T18:23:59;16.73;;;11.40;;
22223;SDS011;11281;52.194;21.006;2022-09-27T18:28:25;16.25;;;11.40;;
22223;SDS011;11281;52.194;21.006;2022-09-27T18:32:51;17.70;;;11.70;;
22223;SDS011;11281;52.194;21.006;2022-09-27T18:37:13;16.60;;;12.02;;
22223;SDS011;11281;52.194;21.006;2022-09-27T18:41:34;16.10;;;12.07;;
22223;SDS011;11281;52.194;21.006;2022-09-27T18:45:58;18.38;;;12.23;;
22223;SDS011;11281;52.194;21.006;2022-09-27T18:50:25;18.20;;;12.35;;
22223;SDS011;11281;52.194;21.006;2022-09-27T18:54:47;21.77;;;13.90;;
22223;SDS011;11281;52.194;21.006;2022-09-27T18:59:09;22.27;;;13.98;;
22223;SDS011;11281;52.194;21.006;2022-09-27T19:03:31;19.85;;;13.05;;
22223;SDS011;11281;52.194;21.006;2022-09-27T19:07:54;19.45;;;13.60;;
22223;SDS011;11281;52.194;21.006;2022-09-27T19:12:16;20.58;;;14.02;;
22223;SDS011;11281;52.194;21.006;2022-09-27T19:16:38;22.70;;;14.00;;
22223;SDS011;11281;52.194;21.006;2022-09-27T19:21:03;23.42;;;15.57;;
22223;SDS011;11281;52.194;21.006;2022-09-27T19:25:31;20.80;;;14.25;;
22223;SDS011;11281;52.194;21.006;2022-09-27T19:29:53;22.73;;;15.88;;
22223;SDS011;11281;52.194;21.006;2022-09-27T19:34:18;22.67;;;15.40;;
22223;SDS011;11281;52.194;21.006;2022-09-27T19:38:40;19.45;;;13.68;;
22223;SDS011;11281;52.194;21.006;2022-09-27T19:43:02;20.77;;;14.75;;
22223;SDS011;11281;52.194;21.006;2022-09-27T19:47:24;21.73;;;15.75;;
22223;SDS011;11281;52.194;21.006;2022-09-27T19:51:46;21.85;;;15.60;;
22223;SDS011;11281;52.194;21.006;2022-09-27T19:56:08;25.98;;;15.80;;
22223;SDS011;11281;52.194;21.006;2022-09-27T20:00:31;23.05;;;15.48;;
22223;SDS011;11281;52.194;21.006;2022-09-27T20:04:52;21.33;;;14.57;;
22223;SDS011;11281;52.194;21.006;2022-09-27T20:09:15;23.13;;;15.15;;
22223;SDS011;11281;52.194;21.006;2022-09-27T20:13:36;23.95;;;16.05;;
22223;SDS011;11281;52.194;21.006;2022-09-27T20:17:59;23.58;;;16.15;;
22223;SDS011;11281;52.194;21.006;2022-09-27T20:22:21;23.38;;;16.65;;
22223;SDS011;11281;52.194;21.006;2022-09-27T20:26:43;27.40;;;17.63;;
22223;SDS011;11281;52.194;21.006;2022-09-27T20:31:05;23.80;;;16.38;;
22223;SDS011;11281;52.194;21.006;2022-09-27T20:35:28;23.23;;;15.93;;
22223;SDS011;11281;52.194;21.006;2022-09-27T20:39:50;23.52;;;15.68;;
22223;SDS011;11281;52.194;21.006;2022-09-27T20:44:17;21.83;;;15.00;;
22223;SDS011;11281;52.194;21.006;2022-09-27T20:48:40;22.73;;;15.68;;
22223;SDS011;11281;52.194;21.006;2022-09-27T20:53:03;23.95;;;15.18;;
22223;SDS011;11281;52.194;21.006;2022-09-27T20:57:25;25.27;;;15.95;;
22223;SDS011;11281;52.194;21.006;2022-09-27T21:01:47;22.67;;;16.08;;
22223;SDS011;11281;52.194;21.006;2022-09-27T21:06:11;20.75;;;15.07;;
22223;SDS011;11281;52.194;21.006;2022-09-27T21:10:33;18.75;;;14.50;;
22223;SDS011;11281;52.194;21.006;2022-09-27T21:14:55;21.45;;;14.18;;
22223;SDS011;11281;52.194;21.006;2022-09-27T21:19:17;21.38;;;14.80;;
22223;SDS011;11281;52.194;21.006;2022-09-27T21:23:40;21.80;;;15.32;;
22223;SDS011;11281;52.194;21.006;2022-09-27T21:28:03;20.63;;;14.23;;
22223;SDS011;11281;52.194;21.006;2022-09-27T21:32:25;19.83;;;14.15;;
22223;SDS011;11281;52.194;21.006;2022-09-27T21:36:47;19.73;;;14.40;;
22223;SDS011;11281;52.194;21.006;2022-09-27T21:41:09;21.58;;;14.55;;
22223;SDS011;11281;52.194;21.006;2022-09-27T21:45:34;23.08;;;14.45;;
22223;SDS011;11281;52.194;21.006;2022-09-27T21:49:56;19.20;;;13.55;;
22223;SDS011;11281;52.194;21.006;2022-09-27T21:54:18;21.63;;;14.02;;
22223;SDS011;11281;52.194;21.006;2022-09-27T21:58:39;21.83;;;14.55;;
22223;SDS011;11281;52.194;21.006;2022-09-27T22:03:02;23.48;;;14.60;;
22223;SDS011;11281;52.194;21.006;2022-09-27T22:07:23;20.77;;;14.45;;
22223;SDS011;11281;52.194;21.006;2022-09-27T22:11:45;20.63;;;14.70;;
22223;SDS011;11281;52.194;21.006;2022-09-27T22:16:08;21.27;;;15.02;;
22223;SDS011;11281;52.194;21.006;2022-09-27T22:20:33;20.15;;;15.07;;
22223;SDS011;11281;52.194;21.006;2022-09-27T22:24:54;20.85;;;14.18;;
22223;SDS011;11281;52.194;21.006;2022-09-27T22:29:16;22.83;;;15.98;;
22223;SDS011;11281;52.194;21.006;2022-09-27T22:33:38;24.60;;;15.48;;
22223;SDS011;11281;52.194;21.006;2022-09-27T22:38:07;24.48;;;16.45;;
22223;SDS011;11281;52.194;21.006;2022-09-27T22:42:29;24.98;;;18.55;;
22223;SDS011;11281;52.194;21.006;2022-09-27T22:46:50;22.35;;;17.05;;
22223;SDS011;11281;52.194;21.006;2022-09-27T22:51:12;26.35;;;17.65;;
22223;SDS011;11281;52.194;21.006;2022-09-27T22:55:34;26.70;;;16.80;;
22223;SDS011;11281;52.194;21.006;2022-09-27T22:59:56;21.80;;;16.65;;
22223;SDS011;11281;52.194;21.006;2022-09-27T23:04:18;22.77;;;16.13;;
22223;SDS011;11281;52.194;21.006;2022-09-27T23:08:40;21.15;;;16.52;;
22223;SDS011;11281;52.194;21.006;2022-09-27T23:13:02;20.60;;;15.90;;
22223;SDS011;11281;52.194;21.006;2022-09-27T23:17:24;19.88;;;15.40;;
22223;SDS011;11281;52.194;21.006;2022-09-27T23:21:46;23.83;;;15.07;;
22223;SDS011;11281;52.194;21.006;2022-09-27T23:26:10;21.48;;;15.32;;
22223;SDS011;11281;52.194;21.006;2022-09-27T23:30:34;20.85;;;14.73;;
22223;SDS011;11281;52.194;21.006;2022-09-27T23:34:56;21.90;;;16.77;;
22223;SDS011;11281;52.194;21.006;2022-09-27T23:39:19;21.13;;;15.68;;
22223;SDS011;11281;52.194;21.006;2022-09-27T23:43:41;23.13;;;16.38;;
22223;SDS011;11281;52.194;21.006;2022-09-27T23:48:03;19.85;;;14.95;;
22223;SDS011;11281;52.194;21.006;2022-09-27T23:52:25;20.50;;;15.55;;
22223;SDS011;11281;52.194;21.006;2022-09-27T23:56:47;22.33;;;16.20;;
